createdAt,value
2018-06-05T00:06:46.286Z,20.72
2018-06-05T00:09:33.444Z,20.57
2018-06-05T00:12:22.093Z,20.71
2018-06-05T00:15:09.445Z,20.81
2018-06-05T00:18:03.189Z,20.80
2018-06-05T00:23:40.583Z,21.53
2018-06-05T00:26:26.935Z,21.31
2018-06-05T00:31:48.645Z,21.55
2018-06-05T00:34:25.261Z,21.43
2018-06-05T00:37:02.417Z,21.47
2018-06-05T00:39:39.124Z,21.07
2018-06-05T00:42:16.161Z,20.96
2018-06-05T00:44:53.088Z,21.32
2018-06-05T00:47:36.922Z,21.51
2018-06-05T00:50:18.234Z,21.42
2018-06-05T00:52:56.050Z,21.21
2018-06-05T00:55:31.903Z,21.08
2018-06-05T00:58:07.499Z,21.15
2018-06-05T01:03:29.139Z,21.21
2018-06-05T01:06:06.774Z,21.28
2018-06-05T01:08:51.902Z,21.39
2018-06-05T01:11:29.630Z,21.17
2018-06-05T01:14:08.845Z,21.20
2018-06-05T01:16:43.833Z,21.28
2018-06-05T01:19:24.505Z,21.40
2018-06-05T01:22:00.999Z,21.33
2018-06-05T01:24:39.741Z,21.07
2018-06-05T01:27:18.301Z,21.21
2018-06-05T01:32:35.569Z,20.97
2018-06-05T01:35:11.399Z,21.18
2018-06-05T01:37:47.633Z,20.76
2018-06-05T01:40:27.399Z,20.93
2018-06-05T01:43:08.081Z,20.95
2018-06-05T01:45:44.437Z,20.91
2018-06-05T01:48:23.615Z,20.65
2018-06-05T01:51:05.815Z,20.17
2018-06-05T01:53:44.385Z,19.96
2018-06-05T01:56:25.792Z,19.87
2018-06-05T01:59:03.279Z,19.97
2018-06-05T02:01:36.444Z,20.20
2018-06-05T02:04:15.710Z,20.54
2018-06-05T02:06:58.842Z,20.77
2018-06-05T02:09:43.340Z,20.87
2018-06-05T02:12:26.699Z,20.88
2018-06-05T02:15:10.100Z,20.79
2018-06-05T02:17:46.140Z,20.86
2018-06-05T02:20:26.317Z,20.95
2018-06-05T02:23:03.392Z,20.90
2018-06-05T02:25:39.228Z,20.89
2018-06-05T02:28:19.376Z,20.69
2018-06-05T02:31:02.360Z,20.64
2018-06-05T02:33:44.991Z,20.55
2018-06-05T02:39:14.479Z,20.48
2018-06-05T02:41:51.540Z,20.76
2018-06-05T02:44:35.418Z,20.94
2018-06-05T02:47:13.456Z,20.92
2018-06-05T02:49:54.251Z,20.98
2018-06-05T02:52:37.405Z,21.07
2018-06-05T02:55:17.345Z,21.06
2018-06-05T02:57:52.545Z,21.14
2018-06-05T03:00:30.646Z,21.12
2018-06-05T03:03:06.950Z,20.69
2018-06-05T03:05:42.303Z,20.77
2018-06-05T03:08:19.837Z,20.98
2018-06-05T03:10:54.433Z,21.03
2018-06-05T03:13:35.753Z,21.02
2018-06-05T03:18:56.311Z,20.72
2018-06-05T03:21:27.857Z,20.43
2018-06-05T03:24:01.947Z,20.25
2018-06-05T03:26:38.952Z,20.37
2018-06-05T03:29:19.142Z,20.03
2018-06-05T03:32:00.979Z,20.33
2018-06-05T03:34:44.288Z,20.93
2018-06-05T03:37:31.667Z,21.16
2018-06-05T03:40:21.557Z,21.32
2018-06-05T03:43:03.573Z,21.38
2018-06-05T03:45:40.810Z,21.33
2018-06-05T03:48:20.832Z,21.39
2018-06-05T03:50:59.546Z,21.57
2018-06-05T03:53:41.079Z,21.79
2018-06-05T03:56:18.380Z,21.68
2018-06-05T03:58:56.576Z,21.76
2018-06-05T04:01:36.245Z,21.77
2018-06-05T04:04:17.296Z,21.77
2018-06-05T04:06:58.043Z,21.69
2018-06-05T04:09:43.231Z,21.73
2018-06-05T04:12:23.169Z,22.00
2018-06-05T04:15:04.383Z,21.72
2018-06-05T04:17:41.421Z,21.60
2018-06-05T04:20:23.483Z,21.65
2018-06-05T04:23:02.793Z,21.67
2018-06-05T04:25:41.497Z,21.79
2018-06-05T04:28:17.840Z,22.24
2018-06-05T04:30:58.482Z,22.28
2018-06-05T04:33:39.624Z,22.47
2018-06-05T04:36:17.405Z,22.56
2018-06-05T04:39:01.211Z,22.68
2018-06-05T04:41:38.929Z,22.91
2018-06-05T04:44:16.837Z,22.97
2018-06-05T04:46:53.060Z,22.56
2018-06-05T04:49:30.925Z,22.79
2018-06-05T04:52:06.209Z,23.48
2018-06-05T04:54:48.659Z,23.80
2018-06-05T04:57:22.773Z,23.97
2018-06-05T05:00:03.025Z,24.38
2018-06-05T05:02:43.733Z,24.47
2018-06-05T05:05:18.593Z,24.12
2018-06-05T05:07:57.248Z,23.88
2018-06-05T05:10:33.542Z,23.71
2018-06-05T05:15:56.165Z,23.53
2018-06-05T05:18:35.628Z,23.51
2018-06-05T05:21:18.386Z,23.43
2018-06-05T05:23:58.621Z,23.39
2018-06-05T05:26:43.006Z,23.53
2018-06-05T05:29:24.316Z,23.67
2018-06-05T05:32:02.461Z,23.93
2018-06-05T05:34:42.171Z,24.00
2018-06-05T05:37:22.993Z,23.83
2018-06-05T05:40:10.698Z,23.68
2018-06-05T05:42:48.277Z,23.68
2018-06-05T05:45:24.452Z,23.78
2018-06-05T05:48:01.534Z,23.99
2018-06-05T05:50:45.187Z,24.04
2018-06-05T05:53:25.872Z,23.99
2018-06-05T05:56:09.422Z,24.14
2018-06-05T05:58:50.832Z,24.47
2018-06-05T06:01:32.322Z,25.14
2018-06-05T06:04:12.416Z,25.49
2018-06-05T06:06:55.493Z,26.21
2018-06-05T06:09:30.692Z,26.33
2018-06-05T06:12:11.245Z,26.47
2018-06-05T06:14:51.480Z,27.00
2018-06-05T06:17:26.711Z,27.20
2018-06-05T06:20:03.919Z,27.12
2018-06-05T06:22:48.086Z,26.90
2018-06-05T06:25:29.369Z,27.28
2018-06-05T06:28:14.003Z,27.58
2018-06-05T06:33:40.102Z,28.01
2018-06-05T06:36:24.210Z,28.04
2018-06-05T06:38:59.242Z,27.89
2018-06-05T06:41:34.806Z,27.87
2018-06-05T06:44:11.394Z,27.91
2018-06-05T06:46:56.172Z,27.99
2018-06-05T06:49:35.399Z,27.90
2018-06-05T06:52:15.934Z,28.04
2018-06-05T06:54:56.154Z,28.15
2018-06-05T06:57:39.790Z,28.34
2018-06-05T07:00:17.429Z,28.20
2018-06-05T07:02:55.563Z,28.21
2018-06-05T07:05:32.260Z,28.26
2018-06-05T07:08:15.895Z,28.29
2018-06-05T07:11:04.077Z,28.55
2018-06-05T07:13:43.839Z,28.30
2018-06-05T07:16:25.548Z,28.14
2018-06-05T07:19:07.825Z,28.46
2018-06-05T07:21:51.422Z,28.59
2018-06-05T07:24:27.219Z,28.79
2018-06-05T07:27:12.874Z,28.97
2018-06-05T07:29:50.333Z,29.08
2018-06-05T07:32:27.192Z,29.19
2018-06-05T07:35:12.023Z,29.07
2018-06-05T07:37:47.203Z,29.15
2018-06-05T07:40:24.733Z,29.25
2018-06-05T07:43:03.580Z,29.38
2018-06-05T07:45:44.637Z,29.25
2018-06-05T07:48:17.788Z,28.99
2018-06-05T07:50:57.067Z,28.93
2018-06-05T07:53:33.775Z,29.13
2018-06-05T07:56:10.192Z,29.14
2018-06-05T07:58:45.544Z,29.33
2018-06-05T08:01:25.705Z,29.39
2018-06-05T08:04:07.321Z,29.50
2018-06-05T08:06:48.292Z,29.47
2018-06-05T08:09:26.167Z,29.29
2018-06-05T08:12:02.069Z,29.66
2018-06-05T08:14:46.549Z,29.69
2018-06-05T08:17:22.037Z,29.68
2018-06-05T08:20:02.540Z,29.49
2018-06-05T08:22:59.980Z,29.38
2018-06-05T08:25:35.467Z,29.42
2018-06-05T08:28:15.509Z,29.77
2018-06-05T08:30:51.091Z,29.84
2018-06-05T08:33:30.274Z,29.52
2018-06-05T08:36:12.580Z,29.77
2018-06-05T08:38:54.232Z,30.17
2018-06-05T08:41:32.229Z,30.65
2018-06-05T08:44:07.563Z,30.74
2018-06-05T08:46:43.054Z,30.71
2018-06-05T08:49:28.630Z,30.85
2018-06-05T08:52:06.859Z,30.52
2018-06-05T08:54:43.143Z,30.52
2018-06-05T08:57:25.446Z,30.52
2018-06-05T09:00:05.326Z,30.73
2018-06-05T09:02:38.555Z,30.80
2018-06-05T09:05:18.881Z,31.01
2018-06-05T09:08:04.940Z,30.93
2018-06-05T09:10:46.776Z,31.36
2018-06-05T09:13:25.267Z,31.39
2018-06-05T09:16:06.010Z,31.29
2018-06-05T09:18:44.069Z,31.39
2018-06-05T09:21:22.033Z,31.41
2018-06-05T09:23:57.937Z,31.21
2018-06-05T09:26:44.025Z,30.94
2018-06-05T09:29:20.123Z,31.11
2018-06-05T09:32:02.637Z,31.25
2018-06-05T09:34:41.434Z,31.22
2018-06-05T09:37:18.721Z,31.44
2018-06-05T09:39:54.496Z,31.39
2018-06-05T09:42:31.391Z,31.45
2018-06-05T09:45:06.520Z,31.90
2018-06-05T09:47:50.383Z,31.93
2018-06-05T09:50:28.347Z,31.76
2018-06-05T09:53:04.199Z,32.12
2018-06-05T09:55:40.335Z,32.51
2018-06-05T09:58:15.935Z,32.02
2018-06-05T10:03:44.451Z,32.18
2018-06-05T10:06:20.081Z,32.40
2018-06-05T10:09:00.056Z,32.17
2018-06-05T10:11:35.818Z,32.22
2018-06-05T10:14:13.784Z,32.39
2018-06-05T10:17:01.231Z,32.63
2018-06-05T10:19:41.813Z,32.72
2018-06-05T10:22:17.604Z,32.33
2018-06-05T10:24:55.370Z,31.64
2018-06-05T10:27:34.114Z,31.79
2018-06-05T10:32:57.058Z,32.22
2018-06-05T10:35:36.551Z,32.10
2018-06-05T10:38:16.856Z,31.31
2018-06-05T10:40:58.770Z,30.93
2018-06-05T10:43:36.648Z,31.18
2018-06-05T10:46:10.180Z,31.06
2018-06-05T10:48:46.391Z,31.65
2018-06-05T10:51:32.439Z,32.48
2018-06-05T10:54:17.360Z,32.19
2018-06-05T10:57:02.169Z,32.09
2018-06-05T10:59:43.188Z,31.98
2018-06-05T11:02:22.120Z,32.57
2018-06-05T11:05:01.565Z,33.00
2018-06-05T11:07:45.695Z,32.36
2018-06-05T11:10:29.736Z,31.40
2018-06-05T11:13:10.558Z,30.66
2018-06-05T11:15:58.070Z,30.57
2018-06-05T11:18:38.866Z,31.11
2018-06-05T11:21:15.950Z,31.22
2018-06-05T11:23:52.302Z,31.47
2018-06-05T11:26:34.079Z,31.19
2018-06-05T11:29:09.634Z,30.98
2018-06-05T11:31:52.012Z,30.82
2018-06-05T11:34:35.654Z,30.81
2018-06-05T11:37:10.399Z,30.70
2018-06-05T11:39:48.350Z,30.50
2018-06-05T11:42:28.518Z,30.51
2018-06-05T11:45:11.573Z,31.04
2018-06-05T11:47:51.441Z,30.93
2018-06-05T11:50:38.225Z,30.35
2018-06-05T11:53:20.192Z,30.15
2018-06-05T11:56:00.448Z,30.53
2018-06-05T11:58:37.903Z,30.89
2018-06-05T12:01:18.544Z,31.17
2018-06-05T12:06:47.054Z,31.59
2018-06-05T12:09:36.994Z,31.55
2018-06-05T12:12:13.385Z,31.08
2018-06-05T12:14:49.654Z,30.68
2018-06-05T12:17:35.113Z,30.56
2018-06-05T12:20:10.018Z,30.59
2018-06-05T12:22:52.998Z,31.18
2018-06-05T12:25:30.478Z,31.33
2018-06-05T12:28:12.757Z,31.65
2018-06-05T12:30:55.978Z,31.28
2018-06-05T12:33:35.806Z,31.06
2018-06-05T12:36:19.870Z,30.37
2018-06-05T12:39:03.621Z,30.51
2018-06-05T12:41:43.723Z,30.62
2018-06-05T12:44:28.145Z,30.40
2018-06-05T12:47:07.944Z,30.72
2018-06-05T12:49:50.352Z,30.75
2018-06-05T12:52:29.504Z,30.31
2018-06-05T12:55:09.235Z,29.72
2018-06-05T12:57:45.456Z,29.86
2018-06-05T13:00:26.717Z,30.29
2018-06-05T13:05:50.321Z,29.94
2018-06-05T13:08:34.353Z,30.01
2018-06-05T13:11:13.515Z,29.36
2018-06-05T13:13:54.962Z,29.31
2018-06-05T13:16:32.697Z,29.48
2018-06-05T13:19:12.698Z,30.05
2018-06-05T13:21:49.446Z,29.98
2018-06-05T13:24:28.201Z,29.94
2018-06-05T13:27:14.434Z,29.84
2018-06-05T13:29:57.576Z,30.02
2018-06-05T13:32:41.982Z,30.13
2018-06-05T13:35:23.844Z,30.24
2018-06-05T13:38:07.984Z,30.76
2018-06-05T13:40:45.623Z,31.46
2018-06-05T13:43:26.165Z,31.08
2018-06-05T13:46:09.078Z,30.49
2018-06-05T13:48:50.599Z,30.34
2018-06-05T13:51:35.232Z,30.16
2018-06-05T13:54:17.535Z,29.83
2018-06-05T13:56:59.771Z,30.21
2018-06-05T13:59:36.465Z,30.15
2018-06-05T14:02:18.103Z,30.23
2018-06-05T14:04:58.509Z,30.19
2018-06-05T14:07:38.670Z,30.54
2018-06-05T14:10:19.089Z,30.08
2018-06-05T14:12:56.612Z,30.50
2018-06-05T14:15:38.242Z,30.76
2018-06-05T14:18:18.871Z,31.18
2018-06-05T14:23:41.547Z,30.40
2018-06-05T14:26:19.664Z,30.38
2018-06-05T14:28:59.890Z,29.73
2018-06-05T14:31:41.314Z,29.43
2018-06-05T14:34:19.829Z,29.26
2018-06-05T14:39:55.655Z,29.69
2018-06-05T14:42:39.106Z,29.56
2018-06-05T14:45:18.570Z,29.69
2018-06-05T14:48:03.921Z,30.03
2018-06-05T14:50:41.035Z,29.95
2018-06-05T14:56:08.350Z,29.19
2018-06-05T14:58:50.730Z,29.91
2018-06-05T15:01:33.169Z,30.27
2018-06-05T15:04:12.641Z,30.11
2018-06-05T15:06:56.671Z,29.77
2018-06-05T15:09:34.683Z,29.55
2018-06-05T15:12:11.992Z,29.45
2018-06-05T15:14:53.956Z,29.56
2018-06-05T15:20:22.915Z,29.41
2018-06-05T15:23:04.464Z,29.68
2018-06-05T15:25:45.302Z,30.14
2018-06-05T15:28:27.178Z,30.27
2018-06-05T15:31:12.142Z,30.42
2018-06-05T15:33:54.102Z,30.42
2018-06-05T15:36:33.647Z,30.35
2018-06-05T15:39:15.064Z,30.51
2018-06-05T15:41:55.376Z,30.39
2018-06-05T15:44:43.961Z,30.42
2018-06-05T15:47:24.669Z,30.18
2018-06-05T15:50:09.774Z,30.07
2018-06-05T15:55:47.286Z,29.97
2018-06-05T15:58:23.674Z,29.83
2018-06-05T16:01:04.313Z,29.79
2018-06-05T16:03:43.667Z,29.47
2018-06-05T16:06:23.788Z,29.50
2018-06-05T16:09:07.816Z,29.48
2018-06-05T16:11:51.747Z,29.59
2018-06-05T16:14:32.981Z,29.65
2018-06-05T16:17:12.540Z,29.69
2018-06-05T16:19:56.151Z,29.52
2018-06-05T16:22:36.064Z,29.67
2018-06-05T16:25:17.023Z,29.91
2018-06-05T16:27:56.637Z,29.75
2018-06-05T16:30:39.100Z,30.07
2018-06-05T16:33:21.522Z,30.23
2018-06-05T16:36:00.687Z,30.14
2018-06-05T16:38:39.464Z,30.18
2018-06-05T16:41:18.201Z,30.00
2018-06-05T16:43:59.213Z,29.96
2018-06-05T16:46:45.110Z,29.75
2018-06-05T16:49:33.144Z,29.66
2018-06-05T16:52:12.226Z,29.44
2018-06-05T16:54:52.089Z,29.52
2018-06-05T16:57:31.529Z,29.47
2018-06-05T17:00:07.037Z,29.44
2018-06-05T17:02:49.911Z,29.30
2018-06-05T17:05:29.532Z,29.27
2018-06-05T17:08:09.330Z,29.26
2018-06-05T17:10:58.062Z,29.21
2018-06-05T17:13:39.582Z,29.15
2018-06-05T17:16:23.248Z,29.13
2018-06-05T17:19:05.094Z,28.97
2018-06-05T17:21:46.991Z,28.92
2018-06-05T17:24:33.729Z,28.73
2018-06-05T17:27:12.836Z,28.63
2018-06-05T17:29:50.948Z,28.61
2018-06-05T17:32:29.142Z,28.61
2018-06-05T17:35:14.973Z,28.71
2018-06-05T17:38:01.470Z,28.76
2018-06-05T17:40:44.154Z,28.92
2018-06-05T17:43:31.541Z,28.74
2018-06-05T17:46:14.665Z,28.54
2018-06-05T17:49:01.448Z,28.48
2018-06-05T17:51:46.404Z,28.31
2018-06-05T17:54:29.619Z,28.06
2018-06-05T17:57:08.327Z,27.99
2018-06-05T18:02:31.681Z,27.94
2018-06-05T18:07:58.531Z,27.91
2018-06-05T18:10:37.486Z,27.83
2018-06-05T18:13:14.616Z,27.85
2018-06-05T18:15:53.877Z,27.67
2018-06-05T18:18:38.970Z,27.39
2018-06-05T18:21:25.161Z,27.17
2018-06-05T18:24:04.754Z,27.34
2018-06-05T18:26:51.086Z,27.42
2018-06-05T18:29:34.409Z,27.64
2018-06-05T18:34:50.088Z,26.99
2018-06-05T18:37:34.138Z,26.76
2018-06-05T18:40:15.316Z,26.67
2018-06-05T18:42:50.736Z,26.55
2018-06-05T18:45:31.043Z,26.38
2018-06-05T18:48:14.710Z,26.28
2018-06-05T18:53:46.877Z,26.15
2018-06-05T18:56:24.335Z,26.15
2018-06-05T18:59:01.503Z,26.17
2018-06-05T19:01:45.973Z,25.89
2018-06-05T19:04:24.630Z,26.10
2018-06-05T19:07:06.680Z,25.87
2018-06-05T19:09:50.317Z,25.69
2018-06-05T19:12:29.596Z,25.57
2018-06-05T19:15:09.233Z,25.70
2018-06-05T19:17:50.106Z,25.68
2018-06-05T19:23:19.764Z,25.67
2018-06-05T19:26:05.591Z,25.54
2018-06-05T19:28:48.121Z,25.23
2018-06-05T19:31:32.136Z,24.72
2018-06-05T19:34:14.384Z,24.63
2018-06-05T19:36:55.288Z,24.83
2018-06-05T19:39:38.172Z,24.96
2018-06-05T19:45:12.117Z,25.07
2018-06-05T19:47:59.140Z,25.06
2018-06-05T19:50:39.788Z,25.12
2018-06-05T19:55:59.368Z,24.96
2018-06-05T19:58:37.429Z,24.96
2018-06-05T20:01:20.543Z,24.86
2018-06-05T20:03:59.658Z,24.83
2018-06-05T20:06:36.915Z,24.71
2018-06-05T20:09:22.287Z,24.57
2018-06-05T20:12:01.733Z,24.51
2018-06-05T20:14:42.641Z,24.44
2018-06-05T20:17:24.489Z,24.53
2018-06-05T20:20:06.508Z,24.54
2018-06-05T20:25:30.367Z,24.38
2018-06-05T20:28:14.479Z,24.33
2018-06-05T20:30:55.423Z,23.99
2018-06-05T20:36:29.345Z,23.90
2018-06-05T20:39:11.899Z,24.02
2018-06-05T20:41:54.374Z,24.11
2018-06-05T20:44:39.239Z,24.15
2018-06-05T20:47:22.010Z,24.13
2018-06-05T20:50:02.290Z,24.10
2018-06-05T20:52:49.246Z,23.80
2018-06-05T20:58:17.055Z,23.60
2018-06-05T21:00:53.153Z,23.71
2018-06-05T21:03:33.907Z,23.72
2018-06-05T21:06:16.941Z,23.70
2018-06-05T21:08:58.878Z,23.75
2018-06-05T21:11:41.274Z,23.73
2018-06-05T21:14:22.994Z,23.42
2018-06-05T21:17:05.305Z,23.26
2018-06-05T21:19:42.559Z,23.16
2018-06-05T21:25:15.119Z,23.10
2018-06-05T21:27:55.152Z,23.12
2018-06-05T21:30:36.924Z,23.17
2018-06-05T21:33:14.304Z,23.26
2018-06-05T21:36:00.563Z,23.27
2018-06-05T21:38:47.586Z,23.27
2018-06-05T21:41:25.956Z,23.35
2018-06-05T21:44:09.324Z,23.26
2018-06-05T21:46:49.832Z,23.16
2018-06-05T21:49:27.640Z,22.95
2018-06-05T21:52:12.152Z,22.70
2018-06-05T21:54:53.242Z,22.65
2018-06-05T22:00:21.826Z,22.61
2018-06-05T22:03:07.758Z,22.74
2018-06-05T22:05:49.265Z,22.78
2018-06-05T22:08:33.092Z,22.82
2018-06-05T22:11:13.710Z,22.79
2018-06-05T22:13:55.167Z,22.60
2018-06-05T22:16:36.280Z,22.56
2018-06-05T22:19:17.000Z,22.76
2018-06-05T22:22:06.299Z,22.93
2018-06-05T22:24:43.762Z,22.87
2018-06-05T22:27:22.478Z,22.93
2018-06-05T22:30:06.226Z,22.89
2018-06-05T22:32:45.261Z,22.69
2018-06-05T22:35:20.312Z,22.94
2018-06-05T22:37:56.882Z,23.07
2018-06-05T22:40:33.835Z,23.09
2018-06-05T22:43:11.765Z,23.11
2018-06-05T22:45:54.357Z,22.91
2018-06-05T22:48:30.651Z,22.93
2018-06-05T22:51:08.251Z,22.70
2018-06-05T22:53:50.913Z,22.40
2018-06-05T22:56:31.886Z,22.30
2018-06-05T22:59:15.437Z,22.31
2018-06-05T23:01:56.112Z,22.21
2018-06-05T23:04:39.520Z,22.25
2018-06-05T23:07:22.770Z,22.17
2018-06-05T23:10:03.122Z,22.26
2018-06-05T23:12:41.640Z,21.72
2018-06-05T23:15:21.171Z,22.00
2018-06-05T23:17:59.988Z,22.20
2018-06-05T23:20:47.861Z,22.19
2018-06-05T23:23:32.194Z,22.43
2018-06-05T23:26:12.328Z,22.68
2018-06-05T23:28:59.090Z,23.09
2018-06-05T23:31:36.354Z,22.98
2018-06-05T23:34:16.365Z,22.65
2018-06-05T23:36:55.643Z,22.49
2018-06-05T23:39:38.698Z,22.36
2018-06-05T23:42:11.976Z,22.40
2018-06-05T23:44:56.511Z,22.09
2018-06-05T23:47:40.999Z,22.12
2018-06-05T23:50:21.295Z,21.67
2018-06-05T23:53:00.847Z,21.80
2018-06-05T23:55:39.322Z,21.88
2018-06-05T23:58:19.384Z,22.27
